sensor_id;sensor_type;location;lat;lon;timestamp;temperature;humidity
47921;DHT22;33686;48.770;9.186;2023-02-17T06:16:00;9.90;99.90
47921;DHT22;33686;48.770;9.186;2023-02-17T06:18:26;10.00;99.90
47921;DHT22;33686;48.770;9.186;2023-02-17T06:20:53;10.00;99.90
47921;DHT22;33686;48.770;9.186;2023-02-17T06:23:19;10.00;99.90
47921;DHT22;33686;48.770;9.186;2023-02-17T06:25:44;10.00;99.90
47921;DHT22;33686;48.770;9.186;2023-02-17T06:28:10;10.00;99.90
47921;DHT22;33686;48.770;9.186;2023-02-17T06:30:36;10.00;99.90
47921;DHT22;33686;48.770;9.186;2023-02-17T06:33:01;10.00;99.90
47921;DHT22;33686;48.770;9.186;2023-02-17T06:35:27;10.00;99.90
47921;DHT22;33686;48.770;9.186;2023-02-17T06:37:52;10.00;99.90
47921;DHT22;33686;48.770;9.186;2023-02-17T06:40:18;10.00;99.90
47921;DHT22;33686;48.770;9.186;2023-02-17T06:42:43;10.10;99.90
47921;DHT22;33686;48.770;9.186;2023-02-17T06:45:09;10.10;99.90
47921;DHT22;33686;48.770;9.186;2023-02-17T06:47:34;10.00;99.90
47921;DHT22;33686;48.770;9.186;2023-02-17T06:50:00;10.00;99.90
47921;DHT22;33686;48.770;9.186;2023-02-17T06:52:26;10.00;99.90
47921;DHT22;33686;48.770;9.186;2023-02-17T06:54:51;10.00;99.90
47921;DHT22;33686;48.770;9.186;2023-02-17T06:57:17;10.00;99.90
47921;DHT22;33686;48.770;9.186;2023-02-17T06:59:42;10.10;99.90
47921;DHT22;33686;48.770;9.186;2023-02-17T07:02:11;10.10;99.90
47921;DHT22;33686;48.770;9.186;2023-02-17T07:04:37;10.10;99.90
47921;DHT22;33686;48.770;9.186;2023-02-17T07:07:03;10.10;99.90
47921;DHT22;33686;48.770;9.186;2023-02-17T07:09:29;10.10;99.90
47921;DHT22;33686;48.770;9.186;2023-02-17T07:11:54;10.10;99.90
47921;DHT22;33686;48.770;9.186;2023-02-17T07:14:22;10.10;99.90
47921;DHT22;33686;48.770;9.186;2023-02-17T07:16:47;10.20;99.90
47921;DHT22;33686;48.770;9.186;2023-02-17T07:19:13;10.20;99.90
47921;DHT22;33686;48.770;9.186;2023-02-17T07:21:38;10.20;99.90
47921;DHT22;33686;48.770;9.186;2023-02-17T07:24:04;10.20;99.90
47921;DHT22;33686;48.770;9.186;2023-02-17T07:26:29;10.30;99.90
47921;DHT22;33686;48.770;9.186;2023-02-17T07:28:55;10.30;99.90
47921;DHT22;33686;48.770;9.186;2023-02-17T07:31:21;10.30;99.90
47921;DHT22;33686;48.770;9.186;2023-02-17T07:33:46;10.40;99.90
47921;DHT22;33686;48.770;9.186;2023-02-17T07:36:15;10.40;99.90
47921;DHT22;33686;48.770;9.186;2023-02-17T07:38:40;10.40;99.90
47921;DHT22;33686;48.770;9.186;2023-02-17T07:41:07;10.40;99.90
47921;DHT22;33686;48.770;9.186;2023-02-17T07:43:33;10.50;99.90
47921;DHT22;33686;48.770;9.186;2023-02-17T07:45:59;10.50;99.90
47921;DHT22;33686;48.770;9.186;2023-02-17T07:48:34;10.60;99.90
47921;DHT22;33686;48.770;9.186;2023-02-17T07:51:03;10.60;99.90
47921;DHT22;33686;48.770;9.186;2023-02-17T07:53:29;10.70;99.90
47921;DHT22;33686;48.770;9.186;2023-02-17T07:55:54;10.80;99.90
47921;DHT22;33686;48.770;9.186;2023-02-17T07:58:20;10.80;99.90
47921;DHT22;33686;48.770;9.186;2023-02-17T08:00:45;10.80;99.90
47921;DHT22;33686;48.770;9.186;2023-02-17T08:03:11;10.80;99.90
47921;DHT22;33686;48.770;9.186;2023-02-17T08:05:39;10.80;99.90
47921;DHT22;33686;48.770;9.186;2023-02-17T08:08:06;10.80;99.90
47921;DHT22;33686;48.770;9.186;2023-02-17T08:10:50;10.80;99.90
47921;DHT22;33686;48.770;9.186;2023-02-17T08:13:34;10.70;99.90
47921;DHT22;33686;48.770;9.186;2023-02-17T08:16:00;10.70;99.90
47921;DHT22;33686;48.770;9.186;2023-02-17T08:18:26;10.70;99.90
47921;DHT22;33686;48.770;9.186;2023-02-17T08:20:51;10.70;99.90
47921;DHT22;33686;48.770;9.186;2023-02-17T08:23:18;10.90;99.90
47921;DHT22;33686;48.770;9.186;2023-02-17T08:25:44;11.10;99.90
47921;DHT22;33686;48.770;9.186;2023-02-17T08:28:10;11.20;99.90
47921;DHT22;33686;48.770;9.186;2023-02-17T08:30:35;11.40;99.90
47921;DHT22;33686;48.770;9.186;2023-02-17T08:33:03;11.60;99.90
47921;DHT22;33686;48.770;9.186;2023-02-17T08:35:28;11.60;99.90
47921;DHT22;33686;48.770;9.186;2023-02-17T08:37:54;11.70;99.90
47921;DHT22;33686;48.770;9.186;2023-02-17T08:40:19;11.60;99.90
47921;DHT22;33686;48.770;9.186;2023-02-17T08:42:45;11.50;99.90
47921;DHT22;33686;48.770;9.186;2023-02-17T08:45:12;11.40;99.90
47921;DHT22;33686;48.770;9.186;2023-02-17T08:47:37;11.40;99.90
47921;DHT22;33686;48.770;9.186;2023-02-17T08:50:04;11.30;99.90
47921;DHT22;33686;48.770;9.186;2023-02-17T08:52:30;11.30;99.90
47921;DHT22;33686;48.770;9.186;2023-02-17T08:54:55;11.40;99.90
47921;DHT22;33686;48.770;9.186;2023-02-17T08:57:21;11.40;99.90
47921;DHT22;33686;48.770;9.186;2023-02-17T08:59:47;11.50;99.90
47921;DHT22;33686;48.770;9.186;2023-02-17T09:02:14;11.50;99.90
47921;DHT22;33686;48.770;9.186;2023-02-17T09:04:40;11.50;99.90
47921;DHT22;33686;48.770;9.186;2023-02-17T09:07:08;11.50;99.90
47921;DHT22;33686;48.770;9.186;2023-02-17T09:09:33;11.50;99.90
47921;DHT22;33686;48.770;9.186;2023-02-17T09:11:59;11.40;99.90
47921;DHT22;33686;48.770;9.186;2023-02-17T09:14:24;11.40;99.90
47921;DHT22;33686;48.770;9.186;2023-02-17T09:16:51;11.40;99.90
47921;DHT22;33686;48.770;9.186;2023-02-17T09:19:17;11.40;99.90
47921;DHT22;33686;48.770;9.186;2023-02-17T09:21:42;11.30;99.90
47921;DHT22;33686;48.770;9.186;2023-02-17T09:24:08;11.30;99.90
47921;DHT22;33686;48.770;9.186;2023-02-17T09:26:33;11.30;99.90
47921;DHT22;33686;48.770;9.186;2023-02-17T09:29:00;11.30;99.90
47921;DHT22;33686;48.770;9.186;2023-02-17T09:31:26;11.30;99.90
47921;DHT22;33686;48.770;9.186;2023-02-17T09:33:52;11.40;99.90
47921;DHT22;33686;48.770;9.186;2023-02-17T09:36:18;11.40;99.90
47921;DHT22;33686;48.770;9.186;2023-02-17T09:38:45;11.40;99.90
47921;DHT22;33686;48.770;9.186;2023-02-17T09:43:39;11.50;99.90
47921;DHT22;33686;48.770;9.186;2023-02-17T09:46:09;11.60;99.90
47921;DHT22;33686;48.770;9.186;2023-02-17T09:48:36;11.60;99.90
47921;DHT22;33686;48.770;9.186;2023-02-17T09:51:03;11.60;99.90
47921;DHT22;33686;48.770;9.186;2023-02-17T09:53:33;11.60;99.90
47921;DHT22;33686;48.770;9.186;2023-02-17T09:56:02;11.70;99.90
47921;DHT22;33686;48.770;9.186;2023-02-17T10:01:01;11.60;99.90
47921;DHT22;33686;48.770;9.186;2023-02-17T10:03:29;11.70;99.90
47921;DHT22;33686;48.770;9.186;2023-02-17T10:06:05;11.80;99.90
47921;DHT22;33686;48.770;9.186;2023-02-17T10:08:35;12.00;99.90
47921;DHT22;33686;48.770;9.186;2023-02-17T10:11:05;12.30;99.90
47921;DHT22;33686;48.770;9.186;2023-02-17T10:13:33;12.50;99.90
47921;DHT22;33686;48.770;9.186;2023-02-17T10:16:00;12.70;99.90
47921;DHT22;33686;48.770;9.186;2023-02-17T10:18:41;12.80;99.90
47921;DHT22;33686;48.770;9.186;2023-02-17T10:21:09;12.60;99.90
47921;DHT22;33686;48.770;9.186;2023-02-17T10:23:36;12.40;99.90
47921;DHT22;33686;48.770;9.186;2023-02-17T10:31:13;12.90;99.90
47921;DHT22;33686;48.770;9.186;2023-02-17T10:33:52;13.10;99.90
47921;DHT22;33686;48.770;9.186;2023-02-17T10:36:41;13.20;99.90
47921;DHT22;33686;48.770;9.186;2023-02-17T10:39:15;13.30;99.90
47921;DHT22;33686;48.770;9.186;2023-02-17T10:41:48;13.60;99.90
47921;DHT22;33686;48.770;9.186;2023-02-17T10:44:17;13.80;99.90
47921;DHT22;33686;48.770;9.186;2023-02-17T10:46:44;13.90;99.90
47921;DHT22;33686;48.770;9.186;2023-02-17T10:49:17;13.90;99.90
47921;DHT22;33686;48.770;9.186;2023-02-17T10:51:46;13.70;99.90
47921;DHT22;33686;48.770;9.186;2023-02-17T10:54:15;13.70;99.90
47921;DHT22;33686;48.770;9.186;2023-02-17T10:56:44;13.70;99.90
47921;DHT22;33686;48.770;9.186;2023-02-17T10:59:22;13.70;99.90
47921;DHT22;33686;48.770;9.186;2023-02-17T11:01:48;13.80;99.90
47921;DHT22;33686;48.770;9.186;2023-02-17T11:04:14;13.70;99.90
47921;DHT22;33686;48.770;9.186;2023-02-17T11:06:41;13.80;99.90
47921;DHT22;33686;48.770;9.186;2023-02-17T11:09:24;13.70;99.90
47921;DHT22;33686;48.770;9.186;2023-02-17T11:11:58;13.70;99.90
47921;DHT22;33686;48.770;9.186;2023-02-17T11:14:28;13.80;99.90
47921;DHT22;33686;48.770;9.186;2023-02-17T11:16:58;14.00;99.90
47921;DHT22;33686;48.770;9.186;2023-02-17T11:19:26;14.20;99.90
47921;DHT22;33686;48.770;9.186;2023-02-17T11:21:53;14.40;99.90
47921;DHT22;33686;48.770;9.186;2023-02-17T11:24:18;14.40;99.90
47921;DHT22;33686;48.770;9.186;2023-02-17T11:26:53;14.40;99.90
47921;DHT22;33686;48.770;9.186;2023-02-17T11:29:20;14.30;99.90
47921;DHT22;33686;48.770;9.186;2023-02-17T11:31:52;14.40;99.90
47921;DHT22;33686;48.770;9.186;2023-02-17T11:34:19;14.30;99.90
47921;DHT22;33686;48.770;9.186;2023-02-17T11:36:55;14.50;99.90
47921;DHT22;33686;48.770;9.186;2023-02-17T11:39:21;14.40;99.90
47921;DHT22;33686;48.770;9.186;2023-02-17T11:41:47;14.30;99.90
47921;DHT22;33686;48.770;9.186;2023-02-17T11:44:21;14.10;99.90
47921;DHT22;33686;48.770;9.186;2023-02-17T11:46:51;14.10;99.90
47921;DHT22;33686;48.770;9.186;2023-02-17T11:52:04;14.00;99.90
47921;DHT22;33686;48.770;9.186;2023-02-17T11:54:35;13.90;99.90
47921;DHT22;33686;48.770;9.186;2023-02-17T11:59:40;14.00;99.90
47921;DHT22;33686;48.770;9.186;2023-02-17T12:02:17;14.00;99.90
47921;DHT22;33686;48.770;9.186;2023-02-17T12:17:50;14.00;99.90
47921;DHT22;33686;48.770;9.186;2023-02-17T12:22:48;13.90;99.90
47921;DHT22;33686;48.770;9.186;2023-02-17T12:25:24;13.90;99.90
47921;DHT22;33686;48.770;9.186;2023-02-17T12:33:08;14.00;99.90
47921;DHT22;33686;48.770;9.186;2023-02-17T12:35:41;14.00;99.90
47921;DHT22;33686;48.770;9.186;2023-02-17T12:38:12;14.00;99.90
47921;DHT22;33686;48.770;9.186;2023-02-17T12:40:40;14.00;99.90
47921;DHT22;33686;48.770;9.186;2023-02-17T12:45:45;14.00;99.90
47921;DHT22;33686;48.770;9.186;2023-02-17T12:48:17;14.10;99.90
47921;DHT22;33686;48.770;9.186;2023-02-17T12:53:16;14.40;99.90
47921;DHT22;33686;48.770;9.186;2023-02-17T12:55:49;14.30;99.90
47921;DHT22;33686;48.770;9.186;2023-02-17T12:58:15;14.30;99.90
47921;DHT22;33686;48.770;9.186;2023-02-17T13:00:43;14.40;99.90
47921;DHT22;33686;48.770;9.186;2023-02-17T13:03:09;14.40;99.90
47921;DHT22;33686;48.770;9.186;2023-02-17T13:05:50;14.40;99.90
47921;DHT22;33686;48.770;9.186;2023-02-17T13:08:22;14.40;99.90
47921;DHT22;33686;48.770;9.186;2023-02-17T13:11:04;14.50;99.90
47921;DHT22;33686;48.770;9.186;2023-02-17T13:13:31;14.50;99.90
47921;DHT22;33686;48.770;9.186;2023-02-17T13:16:01;14.50;99.90
47921;DHT22;33686;48.770;9.186;2023-02-17T13:18:28;14.40;99.90
47921;DHT22;33686;48.770;9.186;2023-02-17T13:20:55;14.40;99.90
47921;DHT22;33686;48.770;9.186;2023-02-17T13:23:26;14.30;99.90
47921;DHT22;33686;48.770;9.186;2023-02-17T13:28:37;14.20;99.90
47921;DHT22;33686;48.770;9.186;2023-02-17T13:31:10;14.30;99.90
47921;DHT22;33686;48.770;9.186;2023-02-17T13:33:40;14.30;99.90
47921;DHT22;33686;48.770;9.186;2023-02-17T13:38:50;14.30;99.90
47921;DHT22;33686;48.770;9.186;2023-02-17T13:41:16;14.20;99.90
47921;DHT22;33686;48.770;9.186;2023-02-17T13:43:41;14.40;99.90
47921;DHT22;33686;48.770;9.186;2023-02-17T13:46:08;14.40;99.90
47921;DHT22;33686;48.770;9.186;2023-02-17T13:48:37;14.40;99.90
47921;DHT22;33686;48.770;9.186;2023-02-17T13:51:04;14.40;99.90
47921;DHT22;33686;48.770;9.186;2023-02-17T13:56:08;14.60;99.90
47921;DHT22;33686;48.770;9.186;2023-02-17T13:58:35;14.60;99.90
47921;DHT22;33686;48.770;9.186;2023-02-17T14:01:02;14.40;99.90
47921;DHT22;33686;48.770;9.186;2023-02-17T14:03:40;14.30;99.90
47921;DHT22;33686;48.770;9.186;2023-02-17T14:06:06;14.20;99.90
47921;DHT22;33686;48.770;9.186;2023-02-17T14:08:36;14.20;99.90
47921;DHT22;33686;48.770;9.186;2023-02-17T14:11:09;14.20;99.90
47921;DHT22;33686;48.770;9.186;2023-02-17T14:13:36;14.20;99.90
47921;DHT22;33686;48.770;9.186;2023-02-17T14:16:03;14.20;99.90
47921;DHT22;33686;48.770;9.186;2023-02-17T14:18:32;14.20;99.90
47921;DHT22;33686;48.770;9.186;2023-02-17T14:20:59;14.00;99.90
47921;DHT22;33686;48.770;9.186;2023-02-17T14:23:25;14.20;99.90
47921;DHT22;33686;48.770;9.186;2023-02-17T14:25:50;14.20;99.90
47921;DHT22;33686;48.770;9.186;2023-02-17T14:28:21;14.40;99.90
47921;DHT22;33686;48.770;9.186;2023-02-17T14:30:47;14.40;99.90
47921;DHT22;33686;48.770;9.186;2023-02-17T14:35:51;14.40;99.90
47921;DHT22;33686;48.770;9.186;2023-02-17T14:38:19;14.30;99.90
47921;DHT22;33686;48.770;9.186;2023-02-17T14:40:45;14.30;99.90
47921;DHT22;33686;48.770;9.186;2023-02-17T14:43:11;14.10;99.90
47921;DHT22;33686;48.770;9.186;2023-02-17T14:45:36;14.10;99.90
47921;DHT22;33686;48.770;9.186;2023-02-17T14:48:02;14.10;99.90
47921;DHT22;33686;48.770;9.186;2023-02-17T14:50:28;14.00;99.90
47921;DHT22;33686;48.770;9.186;2023-02-17T14:52:55;13.90;99.90
47921;DHT22;33686;48.770;9.186;2023-02-17T14:57:46;13.80;99.90
47921;DHT22;33686;48.770;9.186;2023-02-17T15:00:12;13.70;99.90
47921;DHT22;33686;48.770;9.186;2023-02-17T15:02:38;13.70;99.90
47921;DHT22;33686;48.770;9.186;2023-02-17T15:05:04;13.70;99.90
47921;DHT22;33686;48.770;9.186;2023-02-17T15:07:30;13.60;99.90
47921;DHT22;33686;48.770;9.186;2023-02-17T15:09:55;13.70;99.90
47921;DHT22;33686;48.770;9.186;2023-02-17T15:12:21;13.70;99.90
47921;DHT22;33686;48.770;9.186;2023-02-17T15:14:47;13.70;99.90
47921;DHT22;33686;48.770;9.186;2023-02-17T15:17:13;13.60;99.90
47921;DHT22;33686;48.770;9.186;2023-02-17T15:19:38;13.50;99.90
47921;DHT22;33686;48.770;9.186;2023-02-17T15:22:05;13.50;99.90
47921;DHT22;33686;48.770;9.186;2023-02-17T15:24:33;13.40;99.90
47921;DHT22;33686;48.770;9.186;2023-02-17T15:27:02;13.40;99.90
47921;DHT22;33686;48.770;9.186;2023-02-17T15:29:28;13.30;99.90
47921;DHT22;33686;48.770;9.186;2023-02-17T15:31:54;13.30;99.90
47921;DHT22;33686;48.770;9.186;2023-02-17T15:34:21;13.30;99.90
47921;DHT22;33686;48.770;9.186;2023-02-17T15:36:47;13.20;99.90
47921;DHT22;33686;48.770;9.186;2023-02-17T15:39:14;13.20;99.90
47921;DHT22;33686;48.770;9.186;2023-02-17T15:41:40;13.20;99.90
47921;DHT22;33686;48.770;9.186;2023-02-17T15:44:07;13.30;99.90
47921;DHT22;33686;48.770;9.186;2023-02-17T15:46:36;13.30;99.90
47921;DHT22;33686;48.770;9.186;2023-02-17T15:49:03;13.20;99.90
47921;DHT22;33686;48.770;9.186;2023-02-17T15:51:28;13.20;99.90
47921;DHT22;33686;48.770;9.186;2023-02-17T15:53:54;13.20;99.90
47921;DHT22;33686;48.770;9.186;2023-02-17T15:56:24;13.20;99.90
47921;DHT22;33686;48.770;9.186;2023-02-17T15:58:50;13.10;99.90
47921;DHT22;33686;48.770;9.186;2023-02-17T16:01:23;13.10;99.90
47921;DHT22;33686;48.770;9.186;2023-02-17T16:03:51;13.10;99.90
47921;DHT22;33686;48.770;9.186;2023-02-17T16:06:17;13.10;99.90
47921;DHT22;33686;48.770;9.186;2023-02-17T16:08:42;13.00;99.90
47921;DHT22;33686;48.770;9.186;2023-02-17T16:11:11;13.00;99.90
47921;DHT22;33686;48.770;9.186;2023-02-17T16:13:38;12.90;99.90
47921;DHT22;33686;48.770;9.186;2023-02-17T16:16:04;12.90;99.90
47921;DHT22;33686;48.770;9.186;2023-02-17T16:18:33;12.80;99.90
47921;DHT22;33686;48.770;9.186;2023-02-17T16:20:58;12.80;99.90
47921;DHT22;33686;48.770;9.186;2023-02-17T16:23:24;12.80;99.90
47921;DHT22;33686;48.770;9.186;2023-02-17T16:25:49;12.70;99.90
47921;DHT22;33686;48.770;9.186;2023-02-17T16:28:16;12.70;99.90
47921;DHT22;33686;48.770;9.186;2023-02-17T16:30:42;12.60;99.90
47921;DHT22;33686;48.770;9.186;2023-02-17T16:33:09;12.60;99.90
47921;DHT22;33686;48.770;9.186;2023-02-17T16:35:35;12.60;99.90
47921;DHT22;33686;48.770;9.186;2023-02-17T16:38:02;12.60;99.90
47921;DHT22;33686;48.770;9.186;2023-02-17T16:40:30;12.50;99.90
47921;DHT22;33686;48.770;9.186;2023-02-17T16:42:56;12.60;99.90
47921;DHT22;33686;48.770;9.186;2023-02-17T16:45:23;12.60;99.90
47921;DHT22;33686;48.770;9.186;2023-02-17T16:47:50;12.60;99.90
47921;DHT22;33686;48.770;9.186;2023-02-17T16:50:26;12.60;99.90
47921;DHT22;33686;48.770;9.186;2023-02-17T16:52:53;12.50;99.90
47921;DHT22;33686;48.770;9.186;2023-02-17T16:55:20;12.50;99.90
47921;DHT22;33686;48.770;9.186;2023-02-17T16:57:46;12.60;99.90
47921;DHT22;33686;48.770;9.186;2023-02-17T17:00:12;12.60;99.90
47921;DHT22;33686;48.770;9.186;2023-02-17T17:02:38;12.60;99.90
47921;DHT22;33686;48.770;9.186;2023-02-17T17:05:04;12.60;99.90
47921;DHT22;33686;48.770;9.186;2023-02-17T17:07:30;12.60;99.90
47921;DHT22;33686;48.770;9.186;2023-02-17T17:09:55;12.60;99.90
47921;DHT22;33686;48.770;9.186;2023-02-17T17:12:21;12.60;99.90
47921;DHT22;33686;48.770;9.186;2023-02-17T17:14:46;12.60;99.90
47921;DHT22;33686;48.770;9.186;2023-02-17T17:17:12;12.70;99.90
47921;DHT22;33686;48.770;9.186;2023-02-17T17:19:37;12.60;99.90
47921;DHT22;33686;48.770;9.186;2023-02-17T17:22:03;12.70;99.90
47921;DHT22;33686;48.770;9.186;2023-02-17T17:24:28;12.70;99.90
47921;DHT22;33686;48.770;9.186;2023-02-17T17:26:55;12.70;99.90
47921;DHT22;33686;48.770;9.186;2023-02-17T17:29:20;12.70;99.90
47921;DHT22;33686;48.770;9.186;2023-02-17T17:31:46;12.70;99.90
47921;DHT22;33686;48.770;9.186;2023-02-17T17:34:11;12.70;99.90
47921;DHT22;33686;48.770;9.186;2023-02-17T17:36:38;12.70;99.90
47921;DHT22;33686;48.770;9.186;2023-02-17T17:39:07;12.70;99.90
47921;DHT22;33686;48.770;9.186;2023-02-17T17:41:33;12.70;99.90
47921;DHT22;33686;48.770;9.186;2023-02-17T17:43:58;12.70;99.90
47921;DHT22;33686;48.770;9.186;2023-02-17T17:46:25;12.70;99.90
47921;DHT22;33686;48.770;9.186;2023-02-17T17:48:53;12.70;99.90
47921;DHT22;33686;48.770;9.186;2023-02-17T17:51:19;12.70;99.90
47921;DHT22;33686;48.770;9.186;2023-02-17T17:53:45;12.70;99.90
47921;DHT22;33686;48.770;9.186;2023-02-17T17:56:15;12.70;99.90
47921;DHT22;33686;48.770;9.186;2023-02-17T17:58:41;12.70;99.90
47921;DHT22;33686;48.770;9.186;2023-02-17T18:01:07;12.70;99.90
47921;DHT22;33686;48.770;9.186;2023-02-17T18:03:32;12.70;99.90
47921;DHT22;33686;48.770;9.186;2023-02-17T18:05:58;12.70;99.90
47921;DHT22;33686;48.770;9.186;2023-02-17T18:08:23;12.70;99.90
47921;DHT22;33686;48.770;9.186;2023-02-17T18:10:49;12.60;99.90
47921;DHT22;33686;48.770;9.186;2023-02-17T18:13:15;12.60;99.90
47921;DHT22;33686;48.770;9.186;2023-02-17T18:15:40;12.60;99.90
47921;DHT22;33686;48.770;9.186;2023-02-17T18:18:07;12.60;99.90
47921;DHT22;33686;48.770;9.186;2023-02-17T18:20:32;12.60;99.90
47921;DHT22;33686;48.770;9.186;2023-02-17T18:22:58;12.60;99.90
47921;DHT22;33686;48.770;9.186;2023-02-17T18:25:23;12.60;99.90
47921;DHT22;33686;48.770;9.186;2023-02-17T18:27:49;12.60;99.90
47921;DHT22;33686;48.770;9.186;2023-02-17T18:30:18;12.60;99.90
47921;DHT22;33686;48.770;9.186;2023-02-17T18:32:43;12.60;99.90
47921;DHT22;33686;48.770;9.186;2023-02-17T18:35:10;12.60;99.90
47921;DHT22;33686;48.770;9.186;2023-02-17T18:37:35;12.70;99.90
47921;DHT22;33686;48.770;9.186;2023-02-17T18:40:02;12.60;99.90
47921;DHT22;33686;48.770;9.186;2023-02-17T18:42:27;12.70;99.90
47921;DHT22;33686;48.770;9.186;2023-02-17T18:44:53;12.60;99.90
47921;DHT22;33686;48.770;9.186;2023-02-17T18:47:19;12.60;99.90
47921;DHT22;33686;48.770;9.186;2023-02-17T18:49:45;12.60;99.90
47921;DHT22;33686;48.770;9.186;2023-02-17T18:52:11;12.60;99.90
47921;DHT22;33686;48.770;9.186;2023-02-17T18:54:40;12.60;99.90
47921;DHT22;33686;48.770;9.186;2023-02-17T18:57:06;12.60;99.90
47921;DHT22;33686;48.770;9.186;2023-02-17T18:59:31;12.60;99.90
47921;DHT22;33686;48.770;9.186;2023-02-17T19:01:57;12.60;99.90
47921;DHT22;33686;48.770;9.186;2023-02-17T19:04:22;12.60;99.90
47921;DHT22;33686;48.770;9.186;2023-02-17T19:06:48;12.60;99.90
47921;DHT22;33686;48.770;9.186;2023-02-17T19:09:13;12.60;99.90
47921;DHT22;33686;48.770;9.186;2023-02-17T19:11:39;12.60;99.90
47921;DHT22;33686;48.770;9.186;2023-02-17T19:14:05;12.50;99.90
47921;DHT22;33686;48.770;9.186;2023-02-17T19:16:31;12.60;99.90
47921;DHT22;33686;48.770;9.186;2023-02-17T19:18:57;12.60;99.90
47921;DHT22;33686;48.770;9.186;2023-02-17T19:21:23;12.50;99.90
47921;DHT22;33686;48.770;9.186;2023-02-17T19:23:49;12.60;99.90
47921;DHT22;33686;48.770;9.186;2023-02-17T19:26:15;12.60;99.90
47921;DHT22;33686;48.770;9.186;2023-02-17T19:28:41;12.60;99.90
47921;DHT22;33686;48.770;9.186;2023-02-17T19:31:10;12.60;99.90
47921;DHT22;33686;48.770;9.186;2023-02-17T19:33:36;12.70;99.90
47921;DHT22;33686;48.770;9.186;2023-02-17T19:36:06;12.70;99.90
47921;DHT22;33686;48.770;9.186;2023-02-17T19:38:32;12.70;99.90
47921;DHT22;33686;48.770;9.186;2023-02-17T19:41:00;12.60;99.90
47921;DHT22;33686;48.770;9.186;2023-02-17T19:43:25;12.70;99.90
47921;DHT22;33686;48.770;9.186;2023-02-17T19:45:51;12.70;99.90
47921;DHT22;33686;48.770;9.186;2023-02-17T19:48:16;12.70;99.90
47921;DHT22;33686;48.770;9.186;2023-02-17T19:50:42;12.70;99.90
47921;DHT22;33686;48.770;9.186;2023-02-17T19:53:07;12.70;99.90
47921;DHT22;33686;48.770;9.186;2023-02-17T19:55:33;12.70;99.90
47921;DHT22;33686;48.770;9.186;2023-02-17T19:57:58;12.70;99.90
47921;DHT22;33686;48.770;9.186;2023-02-17T20:00:24;12.60;99.90
47921;DHT22;33686;48.770;9.186;2023-02-17T20:02:49;12.60;99.90
47921;DHT22;33686;48.770;9.186;2023-02-17T20:05:15;12.60;99.90
47921;DHT22;33686;48.770;9.186;2023-02-17T20:07:41;12.50;99.90
47921;DHT22;33686;48.770;9.186;2023-02-17T20:10:06;12.50;99.90
47921;DHT22;33686;48.770;9.186;2023-02-17T20:12:35;12.50;99.90
47921;DHT22;33686;48.770;9.186;2023-02-17T20:15:01;12.30;99.90
47921;DHT22;33686;48.770;9.186;2023-02-17T20:17:26;12.30;99.90
47921;DHT22;33686;48.770;9.186;2023-02-17T20:19:52;12.30;99.90
47921;DHT22;33686;48.770;9.186;2023-02-17T20:22:17;12.20;99.90
47921;DHT22;33686;48.770;9.186;2023-02-17T20:24:43;12.10;99.90
47921;DHT22;33686;48.770;9.186;2023-02-17T20:27:08;12.10;99.90
47921;DHT22;33686;48.770;9.186;2023-02-17T20:29:35;12.10;99.90
47921;DHT22;33686;48.770;9.186;2023-02-17T20:32:01;12.00;99.90
47921;DHT22;33686;48.770;9.186;2023-02-17T20:34:28;12.00;99.90
47921;DHT22;33686;48.770;9.186;2023-02-17T20:36:55;12.00;99.90
47921;DHT22;33686;48.770;9.186;2023-02-17T20:39:21;12.10;99.90
47921;DHT22;33686;48.770;9.186;2023-02-17T20:41:46;12.10;99.90
47921;DHT22;33686;48.770;9.186;2023-02-17T20:44:12;12.10;99.90
47921;DHT22;33686;48.770;9.186;2023-02-17T20:46:37;12.10;99.90
47921;DHT22;33686;48.770;9.186;2023-02-17T20:49:03;12.20;99.90
47921;DHT22;33686;48.770;9.186;2023-02-17T20:51:29;12.20;99.90
47921;DHT22;33686;48.770;9.186;2023-02-17T20:53:54;12.20;99.90
47921;DHT22;33686;48.770;9.186;2023-02-17T20:56:20;12.10;99.90
47921;DHT22;33686;48.770;9.186;2023-02-17T20:58:47;12.10;99.90
47921;DHT22;33686;48.770;9.186;2023-02-17T21:01:12;12.10;99.90
47921;DHT22;33686;48.770;9.186;2023-02-17T21:03:38;12.00;99.90
47921;DHT22;33686;48.770;9.186;2023-02-17T21:06:04;12.10;99.90
47921;DHT22;33686;48.770;9.186;2023-02-17T21:08:30;12.10;99.90
47921;DHT22;33686;48.770;9.186;2023-02-17T21:10:56;12.10;99.90
47921;DHT22;33686;48.770;9.186;2023-02-17T21:13:21;12.10;99.90
47921;DHT22;33686;48.770;9.186;2023-02-17T21:15:47;12.10;99.90
47921;DHT22;33686;48.770;9.186;2023-02-17T21:18:13;12.10;99.90
47921;DHT22;33686;48.770;9.186;2023-02-17T21:20:39;12.00;99.90
47921;DHT22;33686;48.770;9.186;2023-02-17T21:23:04;12.10;99.90
47921;DHT22;33686;48.770;9.186;2023-02-17T21:25:31;12.10;99.90
47921;DHT22;33686;48.770;9.186;2023-02-17T21:27:56;12.10;99.90
47921;DHT22;33686;48.770;9.186;2023-02-17T21:30:22;12.10;99.90
47921;DHT22;33686;48.770;9.186;2023-02-17T21:32:50;12.10;99.90
47921;DHT22;33686;48.770;9.186;2023-02-17T21:35:16;12.10;99.90
47921;DHT22;33686;48.770;9.186;2023-02-17T21:37:41;12.10;99.90
47921;DHT22;33686;48.770;9.186;2023-02-17T21:40:09;12.10;99.90
47921;DHT22;33686;48.770;9.186;2023-02-17T21:42:38;12.10;99.90
47921;DHT22;33686;48.770;9.186;2023-02-17T21:45:22;12.10;99.90
47921;DHT22;33686;48.770;9.186;2023-02-17T21:47:48;12.10;99.90
47921;DHT22;33686;48.770;9.186;2023-02-17T21:50:14;12.10;99.90
47921;DHT22;33686;48.770;9.186;2023-02-17T21:52:40;12.10;99.90
47921;DHT22;33686;48.770;9.186;2023-02-17T21:55:06;12.20;99.90
47921;DHT22;33686;48.770;9.186;2023-02-17T21:57:31;12.20;99.90
47921;DHT22;33686;48.770;9.186;2023-02-17T21:59:57;12.20;99.90
47921;DHT22;33686;48.770;9.186;2023-02-17T22:02:22;12.20;99.90
47921;DHT22;33686;48.770;9.186;2023-02-17T22:04:48;12.30;99.90
47921;DHT22;33686;48.770;9.186;2023-02-17T22:07:13;12.20;99.90
47921;DHT22;33686;48.770;9.186;2023-02-17T22:09:39;12.30;99.90
47921;DHT22;33686;48.770;9.186;2023-02-17T22:12:04;12.20;99.90
47921;DHT22;33686;48.770;9.186;2023-02-17T22:14:30;12.30;99.90
47921;DHT22;33686;48.770;9.186;2023-02-17T22:16:56;12.30;99.90
47921;DHT22;33686;48.770;9.186;2023-02-17T22:19:22;12.30;99.90
47921;DHT22;33686;48.770;9.186;2023-02-17T22:21:48;12.30;99.90
47921;DHT22;33686;48.770;9.186;2023-02-17T22:24:14;12.30;99.90
47921;DHT22;33686;48.770;9.186;2023-02-17T22:26:39;12.30;99.90
47921;DHT22;33686;48.770;9.186;2023-02-17T22:29:05;12.30;99.90
47921;DHT22;33686;48.770;9.186;2023-02-17T22:31:31;12.30;99.90
47921;DHT22;33686;48.770;9.186;2023-02-17T22:33:58;12.30;99.90
47921;DHT22;33686;48.770;9.186;2023-02-17T22:36:24;12.30;99.90
47921;DHT22;33686;48.770;9.186;2023-02-17T22:38:51;12.30;99.90